sensor_id;sensor_type;location;lat;lon;timestamp;temperature;humidity
1297;DHT22;641;48.492;9.184;2023-07-13T00:01:19;19.90;71.70
1297;DHT22;641;48.492;9.184;2023-07-13T00:03:45;19.80;72.30
1297;DHT22;641;48.492;9.184;2023-07-13T00:06:11;19.70;72.10
1297;DHT22;641;48.492;9.184;2023-07-13T00:08:36;19.70;73.40
1297;DHT22;641;48.492;9.184;2023-07-13T00:11:03;19.60;73.90
1297;DHT22;641;48.492;9.184;2023-07-13T00:13:30;19.70;73.50
1297;DHT22;641;48.492;9.184;2023-07-13T00:15:57;19.60;74.30
1297;DHT22;641;48.492;9.184;2023-07-13T00:18:23;19.60;73.40
1297;DHT22;641;48.492;9.184;2023-07-13T00:20:49;19.50;74.20
1297;DHT22;641;48.492;9.184;2023-07-13T00:23:14;19.40;74.70
1297;DHT22;641;48.492;9.184;2023-07-13T00:25:40;19.40;74.50
1297;DHT22;641;48.492;9.184;2023-07-13T00:28:06;19.30;74.40
1297;DHT22;641;48.492;9.184;2023-07-13T00:30:31;19.40;75.90
1297;DHT22;641;48.492;9.184;2023-07-13T00:32:57;19.20;75.20
1297;DHT22;641;48.492;9.184;2023-07-13T00:35:22;19.20;76.30
1297;DHT22;641;48.492;9.184;2023-07-13T00:37:49;19.30;78.00
1297;DHT22;641;48.492;9.184;2023-07-13T00:40:16;19.30;77.50
1297;DHT22;641;48.492;9.184;2023-07-13T00:42:42;19.20;79.40
1297;DHT22;641;48.492;9.184;2023-07-13T00:47:40;19.20;79.30
1297;DHT22;641;48.492;9.184;2023-07-13T00:50:08;19.30;79.60
1297;DHT22;641;48.492;9.184;2023-07-13T00:52:37;19.20;80.30
1297;DHT22;641;48.492;9.184;2023-07-13T00:55:04;19.30;79.40
1297;DHT22;641;48.492;9.184;2023-07-13T00:57:30;19.20;78.70
1297;DHT22;641;48.492;9.184;2023-07-13T00:59:58;19.30;80.10
1297;DHT22;641;48.492;9.184;2023-07-13T01:02:32;19.20;77.80
1297;DHT22;641;48.492;9.184;2023-07-13T01:04:58;19.20;78.10
1297;DHT22;641;48.492;9.184;2023-07-13T01:07:24;19.40;77.70
1297;DHT22;641;48.492;9.184;2023-07-13T01:09:50;19.30;76.50
1297;DHT22;641;48.492;9.184;2023-07-13T01:12:15;19.30;75.40
1297;DHT22;641;48.492;9.184;2023-07-13T01:14:41;19.30;75.80
1297;DHT22;641;48.492;9.184;2023-07-13T01:17:09;19.20;74.90
1297;DHT22;641;48.492;9.184;2023-07-13T01:19:40;19.30;74.90
1297;DHT22;641;48.492;9.184;2023-07-13T01:22:12;19.30;73.40
1297;DHT22;641;48.492;9.184;2023-07-13T01:24:41;19.20;71.80
1297;DHT22;641;48.492;9.184;2023-07-13T01:27:09;19.20;73.00
1297;DHT22;641;48.492;9.184;2023-07-13T01:29:37;19.20;73.80
1297;DHT22;641;48.492;9.184;2023-07-13T01:32:22;19.20;72.70
1297;DHT22;641;48.492;9.184;2023-07-13T01:34:50;19.30;74.30
1297;DHT22;641;48.492;9.184;2023-07-13T01:37:17;19.30;72.50
1297;DHT22;641;48.492;9.184;2023-07-13T01:39:42;19.30;74.30
1297;DHT22;641;48.492;9.184;2023-07-13T01:42:08;19.30;74.50
1297;DHT22;641;48.492;9.184;2023-07-13T01:44:34;19.40;75.10
1297;DHT22;641;48.492;9.184;2023-07-13T01:47:01;19.40;74.50
1297;DHT22;641;48.492;9.184;2023-07-13T01:49:27;19.40;74.10
1297;DHT22;641;48.492;9.184;2023-07-13T01:51:52;19.30;74.50
1297;DHT22;641;48.492;9.184;2023-07-13T01:54:18;19.30;74.50
1297;DHT22;641;48.492;9.184;2023-07-13T01:56:43;19.30;74.70
1297;DHT22;641;48.492;9.184;2023-07-13T01:59:09;19.20;73.90
1297;DHT22;641;48.492;9.184;2023-07-13T02:01:35;19.20;73.40
1297;DHT22;641;48.492;9.184;2023-07-13T02:04:00;19.10;75.80
1297;DHT22;641;48.492;9.184;2023-07-13T02:06:26;19.00;74.90
1297;DHT22;641;48.492;9.184;2023-07-13T02:08:51;18.90;74.40
1297;DHT22;641;48.492;9.184;2023-07-13T02:11:17;18.90;75.40
1297;DHT22;641;48.492;9.184;2023-07-13T02:13:45;18.90;75.70
1297;DHT22;641;48.492;9.184;2023-07-13T02:16:11;18.80;75.90
1297;DHT22;641;48.492;9.184;2023-07-13T02:18:36;18.80;75.10
1297;DHT22;641;48.492;9.184;2023-07-13T02:21:03;18.70;74.90
1297;DHT22;641;48.492;9.184;2023-07-13T02:23:28;18.70;75.00
1297;DHT22;641;48.492;9.184;2023-07-13T02:25:58;18.70;75.40
1297;DHT22;641;48.492;9.184;2023-07-13T02:28:24;18.80;75.40
1297;DHT22;641;48.492;9.184;2023-07-13T02:30:50;18.70;73.60
1297;DHT22;641;48.492;9.184;2023-07-13T02:33:16;18.50;71.30
1297;DHT22;641;48.492;9.184;2023-07-13T02:35:41;18.40;71.90
1297;DHT22;641;48.492;9.184;2023-07-13T02:38:07;18.30;72.00
1297;DHT22;641;48.492;9.184;2023-07-13T02:40:34;18.20;72.10
1297;DHT22;641;48.492;9.184;2023-07-13T02:43:01;18.20;72.80
1297;DHT22;641;48.492;9.184;2023-07-13T02:45:27;18.10;73.40
1297;DHT22;641;48.492;9.184;2023-07-13T02:47:52;18.10;73.50
1297;DHT22;641;48.492;9.184;2023-07-13T02:50:18;18.00;73.00
1297;DHT22;641;48.492;9.184;2023-07-13T02:52:44;18.00;73.90
1297;DHT22;641;48.492;9.184;2023-07-13T02:55:10;17.90;73.20
1297;DHT22;641;48.492;9.184;2023-07-13T02:57:35;17.90;74.00
1297;DHT22;641;48.492;9.184;2023-07-13T03:00:03;17.90;74.90
1297;DHT22;641;48.492;9.184;2023-07-13T03:02:32;17.80;74.80
1297;DHT22;641;48.492;9.184;2023-07-13T03:04:58;17.80;74.60
1297;DHT22;641;48.492;9.184;2023-07-13T03:07:24;17.80;76.60
1297;DHT22;641;48.492;9.184;2023-07-13T03:09:57;17.70;76.20
1297;DHT22;641;48.492;9.184;2023-07-13T03:12:23;17.70;76.50
1297;DHT22;641;48.492;9.184;2023-07-13T03:14:49;17.70;76.90
1297;DHT22;641;48.492;9.184;2023-07-13T03:17:14;17.60;76.60
1297;DHT22;641;48.492;9.184;2023-07-13T03:19:40;17.60;76.90
1297;DHT22;641;48.492;9.184;2023-07-13T03:22:06;17.50;76.60
1297;DHT22;641;48.492;9.184;2023-07-13T03:24:33;17.50;77.00
1297;DHT22;641;48.492;9.184;2023-07-13T03:27:00;17.40;77.90
1297;DHT22;641;48.492;9.184;2023-07-13T03:29:26;17.50;79.40
1297;DHT22;641;48.492;9.184;2023-07-13T03:31:52;17.40;77.60
1297;DHT22;641;48.492;9.184;2023-07-13T03:34:17;17.30;78.50
1297;DHT22;641;48.492;9.184;2023-07-13T03:36:43;17.20;78.70
1297;DHT22;641;48.492;9.184;2023-07-13T03:39:09;17.20;78.30
1297;DHT22;641;48.492;9.184;2023-07-13T03:41:34;17.20;79.20
1297;DHT22;641;48.492;9.184;2023-07-13T03:44:00;17.10;79.40
1297;DHT22;641;48.492;9.184;2023-07-13T03:46:26;17.20;79.50
1297;DHT22;641;48.492;9.184;2023-07-13T03:48:51;17.20;80.10
1297;DHT22;641;48.492;9.184;2023-07-13T03:51:17;17.20;79.20
1297;DHT22;641;48.492;9.184;2023-07-13T03:53:45;17.20;80.00
1297;DHT22;641;48.492;9.184;2023-07-13T03:56:11;17.20;79.90
1297;DHT22;641;48.492;9.184;2023-07-13T03:58:39;17.30;80.70
1297;DHT22;641;48.492;9.184;2023-07-13T04:01:08;17.30;81.40
1297;DHT22;641;48.492;9.184;2023-07-13T04:03:34;17.30;80.50
1297;DHT22;641;48.492;9.184;2023-07-13T04:06:01;17.40;80.10
1297;DHT22;641;48.492;9.184;2023-07-13T04:08:31;17.30;78.30
1297;DHT22;641;48.492;9.184;2023-07-13T04:10:58;17.20;80.80
1297;DHT22;641;48.492;9.184;2023-07-13T04:13:24;17.00;83.80
1297;DHT22;641;48.492;9.184;2023-07-13T04:15:51;16.90;85.80
1297;DHT22;641;48.492;9.184;2023-07-13T04:18:17;16.90;86.10
1297;DHT22;641;48.492;9.184;2023-07-13T04:20:43;16.90;86.80
1297;DHT22;641;48.492;9.184;2023-07-13T04:23:08;17.10;86.60
1297;DHT22;641;48.492;9.184;2023-07-13T04:25:34;17.00;87.50
1297;DHT22;641;48.492;9.184;2023-07-13T04:27:59;17.00;88.80
1297;DHT22;641;48.492;9.184;2023-07-13T04:30:25;17.00;87.00
1297;DHT22;641;48.492;9.184;2023-07-13T04:32:52;17.00;87.40
1297;DHT22;641;48.492;9.184;2023-07-13T04:35:19;17.10;86.00
1297;DHT22;641;48.492;9.184;2023-07-13T04:37:46;17.10;84.10
1297;DHT22;641;48.492;9.184;2023-07-13T04:40:12;17.10;85.80
1297;DHT22;641;48.492;9.184;2023-07-13T04:42:38;17.20;87.60
1297;DHT22;641;48.492;9.184;2023-07-13T04:45:06;17.20;87.00
1297;DHT22;641;48.492;9.184;2023-07-13T04:47:32;17.10;87.30
1297;DHT22;641;48.492;9.184;2023-07-13T04:49:57;17.20;87.80
1297;DHT22;641;48.492;9.184;2023-07-13T04:52:23;17.10;88.80
1297;DHT22;641;48.492;9.184;2023-07-13T04:54:49;17.20;88.50
1297;DHT22;641;48.492;9.184;2023-07-13T04:57:15;17.30;89.70
1297;DHT22;641;48.492;9.184;2023-07-13T04:59:40;17.50;88.40
1297;DHT22;641;48.492;9.184;2023-07-13T05:02:06;17.40;88.20
1297;DHT22;641;48.492;9.184;2023-07-13T05:04:32;17.50;89.10
1297;DHT22;641;48.492;9.184;2023-07-13T05:06:59;17.50;87.60
1297;DHT22;641;48.492;9.184;2023-07-13T05:09:25;17.60;88.30
1297;DHT22;641;48.492;9.184;2023-07-13T05:11:50;17.70;89.70
1297;DHT22;641;48.492;9.184;2023-07-13T05:14:16;17.80;87.50
1297;DHT22;641;48.492;9.184;2023-07-13T05:16:42;17.90;88.00
1297;DHT22;641;48.492;9.184;2023-07-13T05:19:08;17.90;88.50
1297;DHT22;641;48.492;9.184;2023-07-13T05:21:34;17.90;87.90
1297;DHT22;641;48.492;9.184;2023-07-13T05:24:00;17.90;86.70
1297;DHT22;641;48.492;9.184;2023-07-13T05:26:25;18.00;86.00
1297;DHT22;641;48.492;9.184;2023-07-13T05:28:51;18.00;85.90
1297;DHT22;641;48.492;9.184;2023-07-13T05:31:16;18.10;85.60
1297;DHT22;641;48.492;9.184;2023-07-13T05:33:42;18.30;84.70
1297;DHT22;641;48.492;9.184;2023-07-13T05:36:08;18.40;82.90
1297;DHT22;641;48.492;9.184;2023-07-13T05:38:34;18.30;83.20
1297;DHT22;641;48.492;9.184;2023-07-13T05:41:00;18.50;82.30
1297;DHT22;641;48.492;9.184;2023-07-13T05:43:25;18.50;83.70
1297;DHT22;641;48.492;9.184;2023-07-13T05:45:54;18.60;82.90
1297;DHT22;641;48.492;9.184;2023-07-13T05:48:19;18.60;81.80
1297;DHT22;641;48.492;9.184;2023-07-13T05:50:45;18.60;81.60
1297;DHT22;641;48.492;9.184;2023-07-13T05:53:11;18.60;81.70
1297;DHT22;641;48.492;9.184;2023-07-13T05:55:41;18.60;80.60
1297;DHT22;641;48.492;9.184;2023-07-13T05:58:07;18.70;79.00
1297;DHT22;641;48.492;9.184;2023-07-13T06:00:33;18.80;79.10
1297;DHT22;641;48.492;9.184;2023-07-13T06:02:59;18.90;78.00
1297;DHT22;641;48.492;9.184;2023-07-13T06:05:24;18.90;77.80
1297;DHT22;641;48.492;9.184;2023-07-13T06:07:50;19.00;76.20
1297;DHT22;641;48.492;9.184;2023-07-13T06:10:15;18.80;76.10
1297;DHT22;641;48.492;9.184;2023-07-13T06:12:41;18.80;77.40
1297;DHT22;641;48.492;9.184;2023-07-13T06:15:07;19.00;77.40
1297;DHT22;641;48.492;9.184;2023-07-13T06:17:33;19.00;77.30
1297;DHT22;641;48.492;9.184;2023-07-13T06:19:58;19.00;74.20
1297;DHT22;641;48.492;9.184;2023-07-13T06:22:24;18.90;72.60
1297;DHT22;641;48.492;9.184;2023-07-13T06:24:49;18.80;73.40
1297;DHT22;641;48.492;9.184;2023-07-13T06:27:15;18.80;71.70
1297;DHT22;641;48.492;9.184;2023-07-13T06:29:41;18.80;70.10
1297;DHT22;641;48.492;9.184;2023-07-13T06:32:10;18.80;69.30
1297;DHT22;641;48.492;9.184;2023-07-13T06:34:36;18.70;70.30
1297;DHT22;641;48.492;9.184;2023-07-13T06:37:01;18.60;69.00
1297;DHT22;641;48.492;9.184;2023-07-13T06:39:27;18.70;67.80
1297;DHT22;641;48.492;9.184;2023-07-13T06:41:52;18.70;67.00
1297;DHT22;641;48.492;9.184;2023-07-13T06:44:18;18.70;67.00
1297;DHT22;641;48.492;9.184;2023-07-13T06:46:43;18.80;67.50
1297;DHT22;641;48.492;9.184;2023-07-13T06:49:09;18.90;65.70
1297;DHT22;641;48.492;9.184;2023-07-13T06:51:35;19.00;65.10
1297;DHT22;641;48.492;9.184;2023-07-13T06:54:00;19.20;65.90
1297;DHT22;641;48.492;9.184;2023-07-13T06:56:26;19.30;64.00
1297;DHT22;641;48.492;9.184;2023-07-13T06:58:51;19.50;63.20
1297;DHT22;641;48.492;9.184;2023-07-13T07:01:17;19.60;62.60
1297;DHT22;641;48.492;9.184;2023-07-13T07:03:42;19.50;59.30
1297;DHT22;641;48.492;9.184;2023-07-13T07:06:18;19.40;59.30
1297;DHT22;641;48.492;9.184;2023-07-13T07:08:44;19.50;59.60
1297;DHT22;641;48.492;9.184;2023-07-13T07:11:17;19.70;57.70
1297;DHT22;641;48.492;9.184;2023-07-13T07:13:43;19.80;58.80
1297;DHT22;641;48.492;9.184;2023-07-13T07:16:08;20.00;56.40
1297;DHT22;641;48.492;9.184;2023-07-13T07:18:34;20.10;54.50
1297;DHT22;641;48.492;9.184;2023-07-13T07:21:00;20.30;54.20
1297;DHT22;641;48.492;9.184;2023-07-13T07:23:26;20.40;54.70
1297;DHT22;641;48.492;9.184;2023-07-13T07:25:52;20.50;52.80
1297;DHT22;641;48.492;9.184;2023-07-13T07:28:18;20.80;52.80
1297;DHT22;641;48.492;9.184;2023-07-13T07:30:46;20.60;54.80
1297;DHT22;641;48.492;9.184;2023-07-13T07:33:13;20.60;54.00
1297;DHT22;641;48.492;9.184;2023-07-13T07:35:39;20.60;54.50
1297;DHT22;641;48.492;9.184;2023-07-13T07:38:04;20.70;53.40
1297;DHT22;641;48.492;9.184;2023-07-13T07:40:30;20.80;53.80
1297;DHT22;641;48.492;9.184;2023-07-13T07:42:57;20.80;52.10
1297;DHT22;641;48.492;9.184;2023-07-13T07:45:23;20.60;51.10
1297;DHT22;641;48.492;9.184;2023-07-13T07:47:49;20.60;53.30
1297;DHT22;641;48.492;9.184;2023-07-13T07:50:15;20.70;54.70
1297;DHT22;641;48.492;9.184;2023-07-13T07:52:41;20.90;54.40
1297;DHT22;641;48.492;9.184;2023-07-13T07:55:07;21.20;52.60
1297;DHT22;641;48.492;9.184;2023-07-13T07:57:33;21.30;52.20
1297;DHT22;641;48.492;9.184;2023-07-13T07:59:59;21.30;51.80
1297;DHT22;641;48.492;9.184;2023-07-13T08:02:25;21.00;49.10
1297;DHT22;641;48.492;9.184;2023-07-13T08:04:51;20.80;49.60
1297;DHT22;641;48.492;9.184;2023-07-13T08:07:16;20.60;47.00
1297;DHT22;641;48.492;9.184;2023-07-13T08:09:42;20.50;48.50
1297;DHT22;641;48.492;9.184;2023-07-13T08:12:08;20.40;49.60
1297;DHT22;641;48.492;9.184;2023-07-13T08:14:33;20.40;50.00
1297;DHT22;641;48.492;9.184;2023-07-13T08:16:59;20.70;51.20
1297;DHT22;641;48.492;9.184;2023-07-13T08:19:25;20.90;51.90
1297;DHT22;641;48.492;9.184;2023-07-13T08:21:50;21.10;50.90
1297;DHT22;641;48.492;9.184;2023-07-13T08:24:16;21.30;49.60
1297;DHT22;641;48.492;9.184;2023-07-13T08:26:44;21.40;49.80
1297;DHT22;641;48.492;9.184;2023-07-13T08:29:09;21.60;50.00
1297;DHT22;641;48.492;9.184;2023-07-13T08:31:35;21.80;49.80
1297;DHT22;641;48.492;9.184;2023-07-13T08:34:00;21.40;48.20
1297;DHT22;641;48.492;9.184;2023-07-13T08:36:26;21.50;50.00
1297;DHT22;641;48.492;9.184;2023-07-13T08:38:53;21.50;48.40
1297;DHT22;641;48.492;9.184;2023-07-13T08:41:18;21.70;48.80
1297;DHT22;641;48.492;9.184;2023-07-13T08:43:54;21.80;48.40
1297;DHT22;641;48.492;9.184;2023-07-13T08:46:26;21.60;46.40
1297;DHT22;641;48.492;9.184;2023-07-13T08:49:03;21.20;47.30
1297;DHT22;641;48.492;9.184;2023-07-13T08:51:46;21.20;47.60
1297;DHT22;641;48.492;9.184;2023-07-13T08:54:36;21.30;49.20
1297;DHT22;641;48.492;9.184;2023-07-13T08:57:12;21.60;48.60
1297;DHT22;641;48.492;9.184;2023-07-13T08:59:38;21.80;47.50
1297;DHT22;641;48.492;9.184;2023-07-13T09:02:25;21.80;46.20
1297;DHT22;641;48.492;9.184;2023-07-13T09:05:02;21.80;46.10
1297;DHT22;641;48.492;9.184;2023-07-13T09:10:12;22.00;46.20
1297;DHT22;641;48.492;9.184;2023-07-13T09:15:43;22.10;44.90
1297;DHT22;641;48.492;9.184;2023-07-13T09:18:59;22.30;46.20
1297;DHT22;641;48.492;9.184;2023-07-13T09:21:10;22.50;44.80
1297;DHT22;641;48.492;9.184;2023-07-13T09:23:36;22.70;44.50
1297;DHT22;641;48.492;9.184;2023-07-13T09:26:13;22.80;43.70
1297;DHT22;641;48.492;9.184;2023-07-13T09:28:43;23.00;43.80
1297;DHT22;641;48.492;9.184;2023-07-13T09:33:38;22.80;41.40
1297;DHT22;641;48.492;9.184;2023-07-13T09:36:24;22.60;41.00
1297;DHT22;641;48.492;9.184;2023-07-13T09:44:17;22.90;43.40
1297;DHT22;641;48.492;9.184;2023-07-13T09:46:52;23.20;43.50
1297;DHT22;641;48.492;9.184;2023-07-13T09:49:18;23.30;43.00
1297;DHT22;641;48.492;9.184;2023-07-13T09:51:44;23.30;42.10
1297;DHT22;641;48.492;9.184;2023-07-13T09:54:28;23.10;42.40
1297;DHT22;641;48.492;9.184;2023-07-13T09:57:11;23.10;41.50
1297;DHT22;641;48.492;9.184;2023-07-13T09:59:41;22.90;42.60
1297;DHT22;641;48.492;9.184;2023-07-13T10:02:27;23.20;42.80
1297;DHT22;641;48.492;9.184;2023-07-13T10:04:56;23.50;41.10
1297;DHT22;641;48.492;9.184;2023-07-13T10:07:23;23.80;40.00
1297;DHT22;641;48.492;9.184;2023-07-13T10:09:53;23.90;39.60
1297;DHT22;641;48.492;9.184;2023-07-13T10:12:20;24.00;39.10
1297;DHT22;641;48.492;9.184;2023-07-13T10:14:46;24.20;40.10
1297;DHT22;641;48.492;9.184;2023-07-13T10:17:14;23.60;38.80
1297;DHT22;641;48.492;9.184;2023-07-13T10:19:42;23.60;40.60
1297;DHT22;641;48.492;9.184;2023-07-13T10:22:26;23.70;41.70
1297;DHT22;641;48.492;9.184;2023-07-13T10:24:53;23.60;40.30
1297;DHT22;641;48.492;9.184;2023-07-13T10:27:27;23.60;40.10
1297;DHT22;641;48.492;9.184;2023-07-13T10:30:19;23.40;38.70
1297;DHT22;641;48.492;9.184;2023-07-13T10:32:46;23.20;40.00
1297;DHT22;641;48.492;9.184;2023-07-13T10:35:14;23.20;39.80
1297;DHT22;641;48.492;9.184;2023-07-13T10:37:47;23.20;39.80
1297;DHT22;641;48.492;9.184;2023-07-13T10:40:23;23.20;40.00
1297;DHT22;641;48.492;9.184;2023-07-13T10:42:53;23.40;39.60
1297;DHT22;641;48.492;9.184;2023-07-13T10:45:21;23.40;39.70
1297;DHT22;641;48.492;9.184;2023-07-13T10:47:49;23.50;39.40
1297;DHT22;641;48.492;9.184;2023-07-13T10:50:25;23.60;40.90
1297;DHT22;641;48.492;9.184;2023-07-13T10:53:00;23.80;39.50
1297;DHT22;641;48.492;9.184;2023-07-13T10:58:35;23.80;40.00
1297;DHT22;641;48.492;9.184;2023-07-13T11:01:08;24.10;40.70
1297;DHT22;641;48.492;9.184;2023-07-13T11:06:16;24.50;38.60
1297;DHT22;641;48.492;9.184;2023-07-13T11:11:34;24.60;38.70
1297;DHT22;641;48.492;9.184;2023-07-13T11:14:02;25.00;40.10
1297;DHT22;641;48.492;9.184;2023-07-13T11:16:44;25.10;40.90
1297;DHT22;641;48.492;9.184;2023-07-13T11:24:57;24.80;39.40
1297;DHT22;641;48.492;9.184;2023-07-13T11:27:41;24.90;39.80
1297;DHT22;641;48.492;9.184;2023-07-13T11:32:51;25.10;39.20
1297;DHT22;641;48.492;9.184;2023-07-13T11:35:22;25.40;38.50
1297;DHT22;641;48.492;9.184;2023-07-13T11:37:51;25.20;36.30
1297;DHT22;641;48.492;9.184;2023-07-13T11:40:18;25.30;38.10
1297;DHT22;641;48.492;9.184;2023-07-13T11:42:44;25.30;37.40
1297;DHT22;641;48.492;9.184;2023-07-13T11:45:22;25.30;37.70
1297;DHT22;641;48.492;9.184;2023-07-13T11:47:49;24.90;36.90
1297;DHT22;641;48.492;9.184;2023-07-13T11:50:23;24.90;38.50
1297;DHT22;641;48.492;9.184;2023-07-13T11:52:51;25.00;38.10
1297;DHT22;641;48.492;9.184;2023-07-13T11:55:20;25.40;37.30
1297;DHT22;641;48.492;9.184;2023-07-13T11:57:57;25.30;36.30
1297;DHT22;641;48.492;9.184;2023-07-13T12:00:28;25.30;36.60
1297;DHT22;641;48.492;9.184;2023-07-13T12:02:56;25.50;37.60
1297;DHT22;641;48.492;9.184;2023-07-13T12:05:22;25.70;35.80
1297;DHT22;641;48.492;9.184;2023-07-13T12:07:49;25.80;37.40
1297;DHT22;641;48.492;9.184;2023-07-13T12:12:53;25.90;36.30
1297;DHT22;641;48.492;9.184;2023-07-13T12:15:21;25.80;35.30
1297;DHT22;641;48.492;9.184;2023-07-13T12:17:48;26.00;36.70
1297;DHT22;641;48.492;9.184;2023-07-13T12:20:40;26.20;35.90
1297;DHT22;641;48.492;9.184;2023-07-13T12:23:10;25.80;36.20
1297;DHT22;641;48.492;9.184;2023-07-13T12:25:45;25.40;36.00
1297;DHT22;641;48.492;9.184;2023-07-13T12:31:00;25.10;37.50
1297;DHT22;641;48.492;9.184;2023-07-13T12:33:28;24.90;36.20
1297;DHT22;641;48.492;9.184;2023-07-13T12:35:55;24.90;36.10
1297;DHT22;641;48.492;9.184;2023-07-13T12:38:21;24.90;37.60
1297;DHT22;641;48.492;9.184;2023-07-13T12:40:49;25.00;37.60
1297;DHT22;641;48.492;9.184;2023-07-13T12:43:16;25.30;37.60
1297;DHT22;641;48.492;9.184;2023-07-13T12:46:02;25.70;36.40
1297;DHT22;641;48.492;9.184;2023-07-13T12:48:28;26.10;34.60
1297;DHT22;641;48.492;9.184;2023-07-13T12:50:55;26.30;35.30
1297;DHT22;641;48.492;9.184;2023-07-13T12:53:24;26.60;35.10
1297;DHT22;641;48.492;9.184;2023-07-13T12:55:56;26.80;34.50
1297;DHT22;641;48.492;9.184;2023-07-13T12:58:32;26.70;34.80
1297;DHT22;641;48.492;9.184;2023-07-13T13:01:02;26.20;33.70
1297;DHT22;641;48.492;9.184;2023-07-13T13:03:33;25.80;33.80
1297;DHT22;641;48.492;9.184;2023-07-13T13:08:47;26.10;35.10
1297;DHT22;641;48.492;9.184;2023-07-13T13:11:14;26.20;32.90
1297;DHT22;641;48.492;9.184;2023-07-13T13:13:42;26.40;34.30
1297;DHT22;641;48.492;9.184;2023-07-13T13:16:24;26.50;34.80
1297;DHT22;641;48.492;9.184;2023-07-13T13:18:55;26.30;31.60
1297;DHT22;641;48.492;9.184;2023-07-13T13:21:25;26.00;33.30
1297;DHT22;641;48.492;9.184;2023-07-13T13:23:52;25.80;33.40
1297;DHT22;641;48.492;9.184;2023-07-13T13:26:19;25.60;32.30
1297;DHT22;641;48.492;9.184;2023-07-13T13:28:45;25.50;33.60
1297;DHT22;641;48.492;9.184;2023-07-13T13:31:13;25.50;33.00
1297;DHT22;641;48.492;9.184;2023-07-13T13:33:40;25.50;32.40
1297;DHT22;641;48.492;9.184;2023-07-13T13:36:19;25.60;33.00
1297;DHT22;641;48.492;9.184;2023-07-13T13:38:45;25.60;32.90
1297;DHT22;641;48.492;9.184;2023-07-13T13:41:12;25.70;33.20
1297;DHT22;641;48.492;9.184;2023-07-13T13:43:39;25.70;31.50
1297;DHT22;641;48.492;9.184;2023-07-13T13:46:16;25.60;32.80
1297;DHT22;641;48.492;9.184;2023-07-13T13:48:43;25.70;34.00
1297;DHT22;641;48.492;9.184;2023-07-13T13:51:18;25.50;31.80
1297;DHT22;641;48.492;9.184;2023-07-13T13:53:44;25.40;32.70
1297;DHT22;641;48.492;9.184;2023-07-13T13:56:11;25.30;33.30
1297;DHT22;641;48.492;9.184;2023-07-13T13:58:37;25.40;33.20
1297;DHT22;641;48.492;9.184;2023-07-13T14:01:03;25.50;32.40
1297;DHT22;641;48.492;9.184;2023-07-13T14:03:31;25.50;32.70
1297;DHT22;641;48.492;9.184;2023-07-13T14:05:56;25.50;33.00
1297;DHT22;641;48.492;9.184;2023-07-13T14:08:22;25.50;33.70
1297;DHT22;641;48.492;9.184;2023-07-13T14:10:51;25.50;33.40
1297;DHT22;641;48.492;9.184;2023-07-13T14:13:20;25.50;32.20
1297;DHT22;641;48.492;9.184;2023-07-13T14:15:47;25.80;33.60
1297;DHT22;641;48.492;9.184;2023-07-13T14:18:13;26.00;33.10
1297;DHT22;641;48.492;9.184;2023-07-13T14:20:43;26.00;32.10
1297;DHT22;641;48.492;9.184;2023-07-13T14:23:09;25.80;32.60
1297;DHT22;641;48.492;9.184;2023-07-13T14:25:35;25.90;30.70
1297;DHT22;641;48.492;9.184;2023-07-13T14:28:17;25.90;32.50
1297;DHT22;641;48.492;9.184;2023-07-13T14:30:44;25.50;31.70
1297;DHT22;641;48.492;9.184;2023-07-13T14:33:11;25.50;32.80
1297;DHT22;641;48.492;9.184;2023-07-13T14:35:37;25.50;31.90
1297;DHT22;641;48.492;9.184;2023-07-13T14:38:03;25.40;32.60
1297;DHT22;641;48.492;9.184;2023-07-13T14:40:31;25.50;33.60
1297;DHT22;641;48.492;9.184;2023-07-13T14:42:57;25.80;32.90
1297;DHT22;641;48.492;9.184;2023-07-13T14:45:23;26.10;32.60
1297;DHT22;641;48.492;9.184;2023-07-13T14:47:49;26.50;31.10
1297;DHT22;641;48.492;9.184;2023-07-13T14:50:20;26.60;32.40
1297;DHT22;641;48.492;9.184;2023-07-13T14:52:47;26.60;29.60
1297;DHT22;641;48.492;9.184;2023-07-13T14:55:15;26.80;30.30
1297;DHT22;641;48.492;9.184;2023-07-13T14:57:41;26.90;32.70
1297;DHT22;641;48.492;9.184;2023-07-13T15:00:13;27.00;31.10
1297;DHT22;641;48.492;9.184;2023-07-13T15:02:45;27.10;29.60
1297;DHT22;641;48.492;9.184;2023-07-13T15:05:19;27.10;29.90
1297;DHT22;641;48.492;9.184;2023-07-13T15:07:45;26.90;29.30
1297;DHT22;641;48.492;9.184;2023-07-13T15:10:18;26.90;29.70
1297;DHT22;641;48.492;9.184;2023-07-13T15:12:44;26.60;28.90
1297;DHT22;641;48.492;9.184;2023-07-13T15:15:11;26.70;30.10
1297;DHT22;641;48.492;9.184;2023-07-13T15:17:38;27.20;30.20
1297;DHT22;641;48.492;9.184;2023-07-13T15:20:30;27.60;28.60
1297;DHT22;641;48.492;9.184;2023-07-13T15:22:57;28.10;28.10
1297;DHT22;641;48.492;9.184;2023-07-13T15:25:26;27.60;29.00
1297;DHT22;641;48.492;9.184;2023-07-13T15:27:53;26.80;29.50
1297;DHT22;641;48.492;9.184;2023-07-13T15:30:21;25.90;30.40
1297;DHT22;641;48.492;9.184;2023-07-13T15:32:47;25.50;31.30
1297;DHT22;641;48.492;9.184;2023-07-13T15:35:21;25.40;31.60
1297;DHT22;641;48.492;9.184;2023-07-13T15:37:48;25.60;32.40
1297;DHT22;641;48.492;9.184;2023-07-13T15:40:14;26.30;31.30
1297;DHT22;641;48.492;9.184;2023-07-13T15:42:41;27.30;29.00
1297;DHT22;641;48.492;9.184;2023-07-13T15:45:21;28.00;28.00
1297;DHT22;641;48.492;9.184;2023-07-13T15:47:49;28.40;28.40
1297;DHT22;641;48.492;9.184;2023-07-13T15:50:23;27.90;28.80
1297;DHT22;641;48.492;9.184;2023-07-13T15:52:54;26.80;30.90
1297;DHT22;641;48.492;9.184;2023-07-13T15:55:20;26.20;32.70
1297;DHT22;641;48.492;9.184;2023-07-13T15:57:51;26.10;33.30
1297;DHT22;641;48.492;9.184;2023-07-13T16:00:21;26.40;33.10
1297;DHT22;641;48.492;9.184;2023-07-13T16:02:48;28.20;31.20
1297;DHT22;641;48.492;9.184;2023-07-13T16:05:14;30.00;29.80
1297;DHT22;641;48.492;9.184;2023-07-13T16:07:41;30.90;28.40
1297;DHT22;641;48.492;9.184;2023-07-13T16:10:13;29.60;29.00
1297;DHT22;641;48.492;9.184;2023-07-13T16:12:39;28.90;30.90
1297;DHT22;641;48.492;9.184;2023-07-13T16:15:15;27.60;30.50
1297;DHT22;641;48.492;9.184;2023-07-13T16:17:42;27.60;31.60
1297;DHT22;641;48.492;9.184;2023-07-13T16:20:08;27.40;31.00
1297;DHT22;641;48.492;9.184;2023-07-13T16:22:42;27.30;31.90
1297;DHT22;641;48.492;9.184;2023-07-13T16:25:18;27.60;31.90
1297;DHT22;641;48.492;9.184;2023-07-13T16:27:45;27.80;31.90
1297;DHT22;641;48.492;9.184;2023-07-13T16:30:16;28.30;32.40
1297;DHT22;641;48.492;9.184;2023-07-13T16:32:44;29.50;30.60
1297;DHT22;641;48.492;9.184;2023-07-13T16:35:09;30.10;30.00
1297;DHT22;641;48.492;9.184;2023-07-13T16:37:37;30.30;28.50
1297;DHT22;641;48.492;9.184;2023-07-13T16:40:05;30.20;28.70
1297;DHT22;641;48.492;9.184;2023-07-13T16:42:41;28.90;29.50
1297;DHT22;641;48.492;9.184;2023-07-13T16:45:11;27.20;31.40
1297;DHT22;641;48.492;9.184;2023-07-13T16:47:38;26.50;34.10
1297;DHT22;641;48.492;9.184;2023-07-13T16:50:21;26.30;35.40
1297;DHT22;641;48.492;9.184;2023-07-13T16:52:47;26.00;35.20
1297;DHT22;641;48.492;9.184;2023-07-13T16:55:14;25.70;34.50
1297;DHT22;641;48.492;9.184;2023-07-13T16:57:41;25.80;35.40
1297;DHT22;641;48.492;9.184;2023-07-13T17:00:29;26.10;35.20
1297;DHT22;641;48.492;9.184;2023-07-13T17:03:00;26.30;34.30
1297;DHT22;641;48.492;9.184;2023-07-13T17:05:38;26.50;35.10